sensor_id;sensor_type;location;lat;lon;timestamp;P1;durP1;ratioP1;P2;durP2;ratioP2
52742;SDS011;55583;53.012;6.556;2023-05-07T00:02:06;26.10;;;18.20;;
52742;SDS011;55583;53.012;6.556;2023-05-07T00:04:32;25.13;;;17.23;;
52742;SDS011;55583;53.012;6.556;2023-05-07T00:07:02;30.40;;;18.75;;
52742;SDS011;55583;53.012;6.556;2023-05-07T00:09:28;35.50;;;19.45;;
52742;SDS011;55583;53.012;6.556;2023-05-07T00:11:54;29.42;;;19.88;;
52742;SDS011;55583;53.012;6.556;2023-05-07T00:14:20;32.40;;;21.15;;
52742;SDS011;55583;53.012;6.556;2023-05-07T00:16:45;32.28;;;20.42;;
52742;SDS011;55583;53.012;6.556;2023-05-07T00:19:11;34.08;;;20.83;;
52742;SDS011;55583;53.012;6.556;2023-05-07T00:21:37;39.22;;;21.40;;
52742;SDS011;55583;53.012;6.556;2023-05-07T00:24:03;26.92;;;20.30;;
52742;SDS011;55583;53.012;6.556;2023-05-07T00:26:29;29.63;;;20.35;;
52742;SDS011;55583;53.012;6.556;2023-05-07T00:28:55;33.67;;;22.38;;
52742;SDS011;55583;53.012;6.556;2023-05-07T00:31:20;34.83;;;23.38;;
52742;SDS011;55583;53.012;6.556;2023-05-07T00:33:46;32.13;;;22.63;;
52742;SDS011;55583;53.012;6.556;2023-05-07T00:36:11;30.63;;;21.80;;
52742;SDS011;55583;53.012;6.556;2023-05-07T00:38:37;42.10;;;22.60;;
52742;SDS011;55583;53.012;6.556;2023-05-07T00:41:03;34.45;;;22.85;;
52742;SDS011;55583;53.012;6.556;2023-05-07T00:43:28;32.80;;;21.30;;
52742;SDS011;55583;53.012;6.556;2023-05-07T00:45:54;34.65;;;22.45;;
52742;SDS011;55583;53.012;6.556;2023-05-07T00:48:20;33.38;;;22.65;;
52742;SDS011;55583;53.012;6.556;2023-05-07T00:50:46;36.03;;;22.02;;
52742;SDS011;55583;53.012;6.556;2023-05-07T00:53:13;37.42;;;22.85;;
52742;SDS011;55583;53.012;6.556;2023-05-07T00:55:39;43.10;;;24.40;;
52742;SDS011;55583;53.012;6.556;2023-05-07T00:58:05;36.10;;;22.95;;
52742;SDS011;55583;53.012;6.556;2023-05-07T01:00:31;37.72;;;24.30;;
52742;SDS011;55583;53.012;6.556;2023-05-07T01:02:57;36.20;;;25.15;;
52742;SDS011;55583;53.012;6.556;2023-05-07T01:05:23;41.53;;;25.77;;
52742;SDS011;55583;53.012;6.556;2023-05-07T01:07:51;38.85;;;24.83;;
52742;SDS011;55583;53.012;6.556;2023-05-07T01:10:20;39.13;;;24.13;;
52742;SDS011;55583;53.012;6.556;2023-05-07T01:12:46;39.33;;;25.05;;
52742;SDS011;55583;53.012;6.556;2023-05-07T01:15:13;34.70;;;24.42;;
52742;SDS011;55583;53.012;6.556;2023-05-07T01:17:40;42.67;;;23.92;;
52742;SDS011;55583;53.012;6.556;2023-05-07T01:20:06;35.88;;;25.15;;
52742;SDS011;55583;53.012;6.556;2023-05-07T01:22:39;40.58;;;24.45;;
52742;SDS011;55583;53.012;6.556;2023-05-07T01:25:06;38.17;;;25.20;;
52742;SDS011;55583;53.012;6.556;2023-05-07T01:27:33;39.80;;;25.95;;
52742;SDS011;55583;53.012;6.556;2023-05-07T01:30:00;41.85;;;26.27;;
52742;SDS011;55583;53.012;6.556;2023-05-07T01:32:31;47.25;;;27.25;;
52742;SDS011;55583;53.012;6.556;2023-05-07T01:35:21;39.67;;;26.05;;
52742;SDS011;55583;53.012;6.556;2023-05-07T01:37:50;42.53;;;26.48;;
52742;SDS011;55583;53.012;6.556;2023-05-07T01:40:15;49.97;;;28.52;;
52742;SDS011;55583;53.012;6.556;2023-05-07T01:42:41;39.03;;;26.05;;
52742;SDS011;55583;53.012;6.556;2023-05-07T01:45:08;42.75;;;26.48;;
52742;SDS011;55583;53.012;6.556;2023-05-07T01:47:35;40.15;;;26.85;;
52742;SDS011;55583;53.012;6.556;2023-05-07T01:50:02;42.38;;;28.08;;
52742;SDS011;55583;53.012;6.556;2023-05-07T01:52:30;40.95;;;28.77;;
52742;SDS011;55583;53.012;6.556;2023-05-07T01:54:56;42.78;;;28.50;;
52742;SDS011;55583;53.012;6.556;2023-05-07T01:57:22;44.35;;;27.83;;
52742;SDS011;55583;53.012;6.556;2023-05-07T01:59:47;40.60;;;27.38;;
52742;SDS011;55583;53.012;6.556;2023-05-07T02:02:13;43.80;;;27.27;;
52742;SDS011;55583;53.012;6.556;2023-05-07T02:04:38;47.35;;;28.25;;
52742;SDS011;55583;53.012;6.556;2023-05-07T02:07:04;43.97;;;29.00;;
52742;SDS011;55583;53.012;6.556;2023-05-07T02:09:30;41.50;;;27.60;;
52742;SDS011;55583;53.012;6.556;2023-05-07T02:11:55;48.25;;;29.27;;
52742;SDS011;55583;53.012;6.556;2023-05-07T02:14:21;43.05;;;27.45;;
52742;SDS011;55583;53.012;6.556;2023-05-07T02:16:47;40.33;;;27.33;;
52742;SDS011;55583;53.012;6.556;2023-05-07T02:19:12;51.45;;;29.45;;
52742;SDS011;55583;53.012;6.556;2023-05-07T02:21:38;51.25;;;31.33;;
52742;SDS011;55583;53.012;6.556;2023-05-07T02:24:04;48.72;;;30.33;;
52742;SDS011;55583;53.012;6.556;2023-05-07T02:26:29;50.85;;;31.90;;
52742;SDS011;55583;53.012;6.556;2023-05-07T02:28:55;50.08;;;32.17;;
52742;SDS011;55583;53.012;6.556;2023-05-07T02:31:20;48.60;;;32.72;;
52742;SDS011;55583;53.012;6.556;2023-05-07T02:33:46;48.80;;;31.60;;
52742;SDS011;55583;53.012;6.556;2023-05-07T02:36:12;47.70;;;31.80;;
52742;SDS011;55583;53.012;6.556;2023-05-07T02:38:38;49.50;;;32.58;;
52742;SDS011;55583;53.012;6.556;2023-05-07T02:41:03;48.00;;;31.15;;
52742;SDS011;55583;53.012;6.556;2023-05-07T02:43:29;56.30;;;33.63;;
52742;SDS011;55583;53.012;6.556;2023-05-07T02:46:05;49.28;;;32.53;;
52742;SDS011;55583;53.012;6.556;2023-05-07T02:48:32;51.15;;;32.47;;
52742;SDS011;55583;53.012;6.556;2023-05-07T02:50:58;53.72;;;34.33;;
52742;SDS011;55583;53.012;6.556;2023-05-07T02:53:24;55.53;;;36.03;;
52742;SDS011;55583;53.012;6.556;2023-05-07T02:55:52;58.17;;;35.22;;
52742;SDS011;55583;53.012;6.556;2023-05-07T02:58:22;56.60;;;33.05;;
52742;SDS011;55583;53.012;6.556;2023-05-07T03:00:47;59.78;;;35.58;;
52742;SDS011;55583;53.012;6.556;2023-05-07T03:03:13;62.08;;;36.25;;
52742;SDS011;55583;53.012;6.556;2023-05-07T03:05:39;56.88;;;34.35;;
52742;SDS011;55583;53.012;6.556;2023-05-07T03:08:06;60.55;;;33.55;;
52742;SDS011;55583;53.012;6.556;2023-05-07T03:10:32;62.58;;;36.95;;
52742;SDS011;55583;53.012;6.556;2023-05-07T03:12:57;61.28;;;35.92;;
52742;SDS011;55583;53.012;6.556;2023-05-07T03:15:23;59.30;;;36.65;;
52742;SDS011;55583;53.012;6.556;2023-05-07T03:17:48;57.05;;;34.58;;
52742;SDS011;55583;53.012;6.556;2023-05-07T03:20:14;66.82;;;38.05;;
52742;SDS011;55583;53.012;6.556;2023-05-07T03:22:40;62.38;;;37.25;;
52742;SDS011;55583;53.012;6.556;2023-05-07T03:25:06;62.80;;;37.88;;
52742;SDS011;55583;53.012;6.556;2023-05-07T03:27:32;67.88;;;36.67;;
52742;SDS011;55583;53.012;6.556;2023-05-07T03:29:57;74.07;;;38.75;;
52742;SDS011;55583;53.012;6.556;2023-05-07T03:32:23;68.57;;;40.03;;
52742;SDS011;55583;53.012;6.556;2023-05-07T03:34:49;71.05;;;39.58;;
52742;SDS011;55583;53.012;6.556;2023-05-07T03:37:15;66.57;;;38.75;;
52742;SDS011;55583;53.012;6.556;2023-05-07T03:39:41;67.97;;;37.60;;
52742;SDS011;55583;53.012;6.556;2023-05-07T03:42:06;67.70;;;37.92;;
52742;SDS011;55583;53.012;6.556;2023-05-07T03:44:32;68.22;;;38.75;;
52742;SDS011;55583;53.012;6.556;2023-05-07T03:46:57;69.15;;;37.67;;
52742;SDS011;55583;53.012;6.556;2023-05-07T03:49:23;64.30;;;37.38;;
52742;SDS011;55583;53.012;6.556;2023-05-07T03:51:49;64.05;;;35.67;;
52742;SDS011;55583;53.012;6.556;2023-05-07T03:54:14;66.38;;;40.00;;
52742;SDS011;55583;53.012;6.556;2023-05-07T03:56:40;81.05;;;40.50;;
52742;SDS011;55583;53.012;6.556;2023-05-07T03:59:06;69.43;;;38.33;;
52742;SDS011;55583;53.012;6.556;2023-05-07T04:01:31;69.70;;;38.97;;
52742;SDS011;55583;53.012;6.556;2023-05-07T04:03:57;77.68;;;41.90;;
52742;SDS011;55583;53.012;6.556;2023-05-07T04:06:22;67.18;;;39.08;;
52742;SDS011;55583;53.012;6.556;2023-05-07T04:08:48;73.32;;;40.25;;
52742;SDS011;55583;53.012;6.556;2023-05-07T04:11:14;69.07;;;39.22;;
52742;SDS011;55583;53.012;6.556;2023-05-07T04:13:39;75.78;;;38.42;;
52742;SDS011;55583;53.012;6.556;2023-05-07T04:16:05;67.65;;;38.90;;
52742;SDS011;55583;53.012;6.556;2023-05-07T04:18:31;70.63;;;38.85;;
52742;SDS011;55583;53.012;6.556;2023-05-07T04:20:57;73.75;;;40.67;;
52742;SDS011;55583;53.012;6.556;2023-05-07T04:23:22;76.00;;;41.15;;
52742;SDS011;55583;53.012;6.556;2023-05-07T04:25:48;68.10;;;36.53;;
52742;SDS011;55583;53.012;6.556;2023-05-07T04:28:14;70.93;;;40.22;;
52742;SDS011;55583;53.012;6.556;2023-05-07T04:30:39;72.25;;;39.47;;
52742;SDS011;55583;53.012;6.556;2023-05-07T04:33:06;66.30;;;38.47;;
52742;SDS011;55583;53.012;6.556;2023-05-07T04:35:32;71.20;;;39.47;;
52742;SDS011;55583;53.012;6.556;2023-05-07T04:37:58;72.90;;;39.95;;
52742;SDS011;55583;53.012;6.556;2023-05-07T04:40:23;61.15;;;35.55;;
52742;SDS011;55583;53.012;6.556;2023-05-07T04:42:49;60.53;;;37.10;;
52742;SDS011;55583;53.012;6.556;2023-05-07T04:45:15;55.50;;;35.92;;
52742;SDS011;55583;53.012;6.556;2023-05-07T04:47:40;54.33;;;33.35;;
52742;SDS011;55583;53.012;6.556;2023-05-07T04:50:06;58.00;;;35.38;;
52742;SDS011;55583;53.012;6.556;2023-05-07T04:52:33;60.70;;;34.88;;
52742;SDS011;55583;53.012;6.556;2023-05-07T04:54:59;67.57;;;34.88;;
52742;SDS011;55583;53.012;6.556;2023-05-07T04:57:25;64.00;;;36.97;;
52742;SDS011;55583;53.012;6.556;2023-05-07T04:59:52;57.08;;;35.42;;
52742;SDS011;55583;53.012;6.556;2023-05-07T05:02:19;56.78;;;36.15;;
52742;SDS011;55583;53.012;6.556;2023-05-07T05:04:44;53.22;;;33.88;;
52742;SDS011;55583;53.012;6.556;2023-05-07T05:07:10;56.42;;;33.65;;
52742;SDS011;55583;53.012;6.556;2023-05-07T05:09:36;54.88;;;33.88;;
52742;SDS011;55583;53.012;6.556;2023-05-07T05:12:02;55.38;;;34.00;;
52742;SDS011;55583;53.012;6.556;2023-05-07T05:14:27;58.47;;;33.15;;
52742;SDS011;55583;53.012;6.556;2023-05-07T05:16:53;56.00;;;33.47;;
52742;SDS011;55583;53.012;6.556;2023-05-07T05:19:19;50.15;;;31.67;;
52742;SDS011;55583;53.012;6.556;2023-05-07T05:21:44;49.53;;;31.02;;
52742;SDS011;55583;53.012;6.556;2023-05-07T05:24:12;49.55;;;31.42;;
52742;SDS011;55583;53.012;6.556;2023-05-07T05:26:38;58.13;;;33.17;;
52742;SDS011;55583;53.012;6.556;2023-05-07T05:29:04;52.78;;;32.92;;
52742;SDS011;55583;53.012;6.556;2023-05-07T05:31:29;48.72;;;32.78;;
52742;SDS011;55583;53.012;6.556;2023-05-07T05:33:55;50.88;;;31.75;;
52742;SDS011;55583;53.012;6.556;2023-05-07T05:36:21;46.55;;;30.33;;
52742;SDS011;55583;53.012;6.556;2023-05-07T05:38:47;43.35;;;27.25;;
52742;SDS011;55583;53.012;6.556;2023-05-07T05:41:12;49.63;;;28.48;;
52742;SDS011;55583;53.012;6.556;2023-05-07T05:43:38;46.38;;;30.27;;
52742;SDS011;55583;53.012;6.556;2023-05-07T05:46:03;47.72;;;28.83;;
52742;SDS011;55583;53.012;6.556;2023-05-07T05:48:29;44.42;;;29.63;;
52742;SDS011;55583;53.012;6.556;2023-05-07T05:50:55;44.83;;;28.33;;
52742;SDS011;55583;53.012;6.556;2023-05-07T05:53:21;48.28;;;29.33;;
52742;SDS011;55583;53.012;6.556;2023-05-07T05:55:46;46.65;;;29.05;;
52742;SDS011;55583;53.012;6.556;2023-05-07T05:58:12;46.50;;;29.70;;
52742;SDS011;55583;53.012;6.556;2023-05-07T06:00:40;47.80;;;27.88;;
52742;SDS011;55583;53.012;6.556;2023-05-07T06:03:05;42.30;;;28.63;;
52742;SDS011;55583;53.012;6.556;2023-05-07T06:05:31;37.40;;;25.70;;
52742;SDS011;55583;53.012;6.556;2023-05-07T06:07:57;41.63;;;27.27;;
52742;SDS011;55583;53.012;6.556;2023-05-07T06:10:22;40.53;;;27.55;;
52742;SDS011;55583;53.012;6.556;2023-05-07T06:12:49;41.08;;;26.55;;
52742;SDS011;55583;53.012;6.556;2023-05-07T06:15:14;40.13;;;25.65;;
52742;SDS011;55583;53.012;6.556;2023-05-07T06:17:40;38.75;;;25.23;;
52742;SDS011;55583;53.012;6.556;2023-05-07T06:20:06;39.83;;;26.48;;
52742;SDS011;55583;53.012;6.556;2023-05-07T06:22:32;38.90;;;24.55;;
52742;SDS011;55583;53.012;6.556;2023-05-07T06:24:57;37.67;;;25.63;;
52742;SDS011;55583;53.012;6.556;2023-05-07T06:27:23;37.53;;;26.10;;
52742;SDS011;55583;53.012;6.556;2023-05-07T06:29:49;37.53;;;26.50;;
52742;SDS011;55583;53.012;6.556;2023-05-07T06:32:14;37.15;;;24.58;;
52742;SDS011;55583;53.012;6.556;2023-05-07T06:34:40;35.97;;;25.60;;
52742;SDS011;55583;53.012;6.556;2023-05-07T06:37:06;41.28;;;27.27;;
52742;SDS011;55583;53.012;6.556;2023-05-07T06:39:32;34.78;;;24.50;;
52742;SDS011;55583;53.012;6.556;2023-05-07T06:41:59;34.58;;;24.02;;
52742;SDS011;55583;53.012;6.556;2023-05-07T06:44:26;38.00;;;25.58;;
52742;SDS011;55583;53.012;6.556;2023-05-07T06:46:52;41.45;;;26.25;;
52742;SDS011;55583;53.012;6.556;2023-05-07T06:49:17;38.85;;;27.48;;
52742;SDS011;55583;53.012;6.556;2023-05-07T06:51:43;36.42;;;24.40;;
52742;SDS011;55583;53.012;6.556;2023-05-07T06:54:09;39.75;;;24.80;;
52742;SDS011;55583;53.012;6.556;2023-05-07T06:56:34;36.00;;;25.05;;
52742;SDS011;55583;53.012;6.556;2023-05-07T06:59:01;36.25;;;25.40;;
52742;SDS011;55583;53.012;6.556;2023-05-07T07:01:27;39.42;;;27.27;;
52742;SDS011;55583;53.012;6.556;2023-05-07T07:03:53;39.10;;;25.95;;
52742;SDS011;55583;53.012;6.556;2023-05-07T07:06:19;36.55;;;26.98;;
52742;SDS011;55583;53.012;6.556;2023-05-07T07:08:45;34.17;;;23.98;;
52742;SDS011;55583;53.012;6.556;2023-05-07T07:11:10;38.10;;;26.27;;
52742;SDS011;55583;53.012;6.556;2023-05-07T07:13:36;37.75;;;25.35;;
52742;SDS011;55583;53.012;6.556;2023-05-07T07:16:02;35.72;;;25.88;;
52742;SDS011;55583;53.012;6.556;2023-05-07T07:18:28;40.45;;;25.38;;
52742;SDS011;55583;53.012;6.556;2023-05-07T07:20:54;37.97;;;26.92;;
52742;SDS011;55583;53.012;6.556;2023-05-07T07:23:19;39.92;;;26.45;;
52742;SDS011;55583;53.012;6.556;2023-05-07T07:25:45;36.90;;;25.60;;
52742;SDS011;55583;53.012;6.556;2023-05-07T07:28:11;38.25;;;27.45;;
52742;SDS011;55583;53.012;6.556;2023-05-07T07:30:37;39.22;;;25.67;;
52742;SDS011;55583;53.012;6.556;2023-05-07T07:33:06;34.95;;;25.05;;
52742;SDS011;55583;53.012;6.556;2023-05-07T07:35:32;38.15;;;24.20;;
52742;SDS011;55583;53.012;6.556;2023-05-07T07:37:58;33.85;;;25.60;;
52742;SDS011;55583;53.012;6.556;2023-05-07T07:40:23;31.25;;;25.08;;
52742;SDS011;55583;53.012;6.556;2023-05-07T07:42:50;39.50;;;26.35;;
52742;SDS011;55583;53.012;6.556;2023-05-07T07:45:16;37.90;;;25.83;;
52742;SDS011;55583;53.012;6.556;2023-05-07T07:47:41;35.47;;;26.17;;
52742;SDS011;55583;53.012;6.556;2023-05-07T07:50:07;38.38;;;26.75;;
52742;SDS011;55583;53.012;6.556;2023-05-07T07:52:33;37.92;;;24.42;;
52742;SDS011;55583;53.012;6.556;2023-05-07T07:54:59;36.38;;;25.73;;
52742;SDS011;55583;53.012;6.556;2023-05-07T07:57:25;39.08;;;27.13;;
52742;SDS011;55583;53.012;6.556;2023-05-07T07:59:50;36.10;;;25.92;;
52742;SDS011;55583;53.012;6.556;2023-05-07T08:02:16;41.42;;;26.70;;
52742;SDS011;55583;53.012;6.556;2023-05-07T08:04:42;41.58;;;27.42;;
52742;SDS011;55583;53.012;6.556;2023-05-07T08:07:08;36.55;;;27.10;;
52742;SDS011;55583;53.012;6.556;2023-05-07T08:09:35;36.65;;;26.25;;
52742;SDS011;55583;53.012;6.556;2023-05-07T08:12:01;37.35;;;26.67;;
52742;SDS011;55583;53.012;6.556;2023-05-07T08:14:27;41.17;;;26.33;;
52742;SDS011;55583;53.012;6.556;2023-05-07T08:16:53;32.55;;;24.52;;
52742;SDS011;55583;53.012;6.556;2023-05-07T08:19:19;33.65;;;24.98;;
52742;SDS011;55583;53.012;6.556;2023-05-07T08:21:46;34.88;;;25.00;;
52742;SDS011;55583;53.012;6.556;2023-05-07T08:24:15;37.53;;;25.63;;
52742;SDS011;55583;53.012;6.556;2023-05-07T08:26:41;33.05;;;23.20;;
52742;SDS011;55583;53.012;6.556;2023-05-07T08:29:08;32.38;;;25.15;;
52742;SDS011;55583;53.012;6.556;2023-05-07T08:31:33;33.58;;;23.95;;
52742;SDS011;55583;53.012;6.556;2023-05-07T08:33:59;39.08;;;25.80;;
52742;SDS011;55583;53.012;6.556;2023-05-07T08:36:25;35.88;;;24.95;;
52742;SDS011;55583;53.012;6.556;2023-05-07T08:38:51;32.15;;;23.15;;
52742;SDS011;55583;53.012;6.556;2023-05-07T08:41:17;34.92;;;24.02;;
52742;SDS011;55583;53.012;6.556;2023-05-07T08:43:46;35.33;;;25.75;;
52742;SDS011;55583;53.012;6.556;2023-05-07T08:46:16;33.53;;;24.48;;
52742;SDS011;55583;53.012;6.556;2023-05-07T08:48:44;36.45;;;25.33;;
52742;SDS011;55583;53.012;6.556;2023-05-07T08:51:13;29.27;;;23.05;;
52742;SDS011;55583;53.012;6.556;2023-05-07T08:53:40;34.33;;;25.05;;
52742;SDS011;55583;53.012;6.556;2023-05-07T08:56:07;34.22;;;23.98;;
52742;SDS011;55583;53.012;6.556;2023-05-07T08:58:33;30.52;;;24.27;;
52742;SDS011;55583;53.012;6.556;2023-05-07T09:01:00;34.20;;;25.23;;
52742;SDS011;55583;53.012;6.556;2023-05-07T09:03:32;31.45;;;22.60;;
52742;SDS011;55583;53.012;6.556;2023-05-07T09:05:58;34.00;;;24.38;;
52742;SDS011;55583;53.012;6.556;2023-05-07T09:08:27;30.92;;;22.13;;
52742;SDS011;55583;53.012;6.556;2023-05-07T09:10:53;29.20;;;20.77;;
52742;SDS011;55583;53.012;6.556;2023-05-07T09:13:19;29.77;;;22.08;;
52742;SDS011;55583;53.012;6.556;2023-05-07T09:15:45;28.63;;;20.67;;
52742;SDS011;55583;53.012;6.556;2023-05-07T09:18:11;28.77;;;21.88;;
52742;SDS011;55583;53.012;6.556;2023-05-07T09:20:37;26.20;;;20.30;;
52742;SDS011;55583;53.012;6.556;2023-05-07T09:23:04;24.65;;;19.92;;
52742;SDS011;55583;53.012;6.556;2023-05-07T09:25:32;25.38;;;19.85;;
52742;SDS011;55583;53.012;6.556;2023-05-07T09:27:59;23.30;;;19.30;;
52742;SDS011;55583;53.012;6.556;2023-05-07T09:30:32;24.67;;;19.63;;
52742;SDS011;55583;53.012;6.556;2023-05-07T09:32:58;26.10;;;19.88;;
52742;SDS011;55583;53.012;6.556;2023-05-07T09:35:26;24.48;;;19.75;;
52742;SDS011;55583;53.012;6.556;2023-05-07T09:37:53;23.10;;;17.27;;
52742;SDS011;55583;53.012;6.556;2023-05-07T09:40:23;22.23;;;17.00;;
52742;SDS011;55583;53.012;6.556;2023-05-07T09:42:53;20.67;;;17.17;;
52742;SDS011;55583;53.012;6.556;2023-05-07T09:45:26;20.52;;;16.98;;
52742;SDS011;55583;53.012;6.556;2023-05-07T09:47:56;22.38;;;15.93;;
52742;SDS011;55583;53.012;6.556;2023-05-07T09:50:27;22.15;;;17.75;;
52742;SDS011;55583;53.012;6.556;2023-05-07T09:52:57;20.33;;;16.55;;
52742;SDS011;55583;53.012;6.556;2023-05-07T09:55:23;19.38;;;16.55;;
52742;SDS011;55583;53.012;6.556;2023-05-07T09:57:49;22.27;;;17.23;;
52742;SDS011;55583;53.012;6.556;2023-05-07T10:00:18;20.55;;;17.88;;
52742;SDS011;55583;53.012;6.556;2023-05-07T10:02:45;20.33;;;18.02;;
52742;SDS011;55583;53.012;6.556;2023-05-07T10:05:17;21.98;;;17.05;;
52742;SDS011;55583;53.012;6.556;2023-05-07T10:07:44;24.55;;;16.85;;
52742;SDS011;55583;53.012;6.556;2023-05-07T10:10:10;20.40;;;17.55;;
52742;SDS011;55583;53.012;6.556;2023-05-07T10:12:36;16.73;;;14.88;;
52742;SDS011;55583;53.012;6.556;2023-05-07T10:15:07;18.55;;;15.93;;
52742;SDS011;55583;53.012;6.556;2023-05-07T10:17:35;20.65;;;14.93;;
52742;SDS011;55583;53.012;6.556;2023-05-07T10:20:02;20.80;;;15.65;;
52742;SDS011;55583;53.012;6.556;2023-05-07T10:22:30;19.52;;;16.08;;
52742;SDS011;55583;53.012;6.556;2023-05-07T10:25:03;19.10;;;14.73;;
52742;SDS011;55583;53.012;6.556;2023-05-07T10:27:34;17.30;;;15.15;;
52742;SDS011;55583;53.012;6.556;2023-05-07T10:32:42;17.80;;;14.57;;
52742;SDS011;55583;53.012;6.556;2023-05-07T10:35:13;15.25;;;12.98;;
52742;SDS011;55583;53.012;6.556;2023-05-07T10:37:42;18.20;;;14.05;;
52742;SDS011;55583;53.012;6.556;2023-05-07T10:40:09;20.20;;;13.73;;
52742;SDS011;55583;53.012;6.556;2023-05-07T10:42:36;14.30;;;12.57;;
52742;SDS011;55583;53.012;6.556;2023-05-07T10:45:11;15.70;;;14.00;;
52742;SDS011;55583;53.012;6.556;2023-05-07T10:50:40;15.70;;;12.77;;
52742;SDS011;55583;53.012;6.556;2023-05-07T10:55:41;17.05;;;12.70;;
52742;SDS011;55583;53.012;6.556;2023-05-07T10:58:28;13.85;;;12.45;;
52742;SDS011;55583;53.012;6.556;2023-05-07T11:00:57;16.25;;;12.63;;
52742;SDS011;55583;53.012;6.556;2023-05-07T11:03:24;14.73;;;13.23;;
52742;SDS011;55583;53.012;6.556;2023-05-07T11:06:08;16.73;;;12.95;;
52742;SDS011;55583;53.012;6.556;2023-05-07T11:11:19;14.70;;;13.05;;
52742;SDS011;55583;53.012;6.556;2023-05-07T11:14:04;16.73;;;12.68;;
52742;SDS011;55583;53.012;6.556;2023-05-07T11:16:30;13.18;;;11.88;;
52742;SDS011;55583;53.012;6.556;2023-05-07T11:18:58;15.13;;;13.57;;
52742;SDS011;55583;53.012;6.556;2023-05-07T11:21:57;14.05;;;12.65;;
52742;SDS011;55583;53.012;6.556;2023-05-07T11:24:16;15.23;;;13.68;;
52742;SDS011;55583;53.012;6.556;2023-05-07T11:26:51;15.95;;;12.98;;
52742;SDS011;55583;53.012;6.556;2023-05-07T11:29:17;16.15;;;12.65;;
52742;SDS011;55583;53.012;6.556;2023-05-07T11:31:48;13.32;;;11.68;;
52742;SDS011;55583;53.012;6.556;2023-05-07T11:34:20;15.40;;;11.98;;
52742;SDS011;55583;53.012;6.556;2023-05-07T11:36:47;13.15;;;11.80;;
52742;SDS011;55583;53.012;6.556;2023-05-07T11:39:24;14.93;;;13.43;;
52742;SDS011;55583;53.012;6.556;2023-05-07T11:41:51;16.98;;;12.90;;
52742;SDS011;55583;53.012;6.556;2023-05-07T11:44:16;12.05;;;10.75;;
52742;SDS011;55583;53.012;6.556;2023-05-07T11:46:42;13.27;;;11.88;;
52742;SDS011;55583;53.012;6.556;2023-05-07T11:49:09;12.18;;;10.85;;
52742;SDS011;55583;53.012;6.556;2023-05-07T11:51:35;14.38;;;12.90;;
52742;SDS011;55583;53.012;6.556;2023-05-07T11:54:03;13.32;;;11.93;;
52742;SDS011;55583;53.012;6.556;2023-05-07T11:56:33;12.45;;;11.18;;
52742;SDS011;55583;53.012;6.556;2023-05-07T11:59:00;13.77;;;12.40;;
52742;SDS011;55583;53.012;6.556;2023-05-07T12:01:26;14.45;;;12.40;;
52742;SDS011;55583;53.012;6.556;2023-05-07T12:03:51;14.07;;;12.68;;
52742;SDS011;55583;53.012;6.556;2023-05-07T12:06:17;16.40;;;11.32;;
52742;SDS011;55583;53.012;6.556;2023-05-07T12:08:44;14.02;;;12.05;;
52742;SDS011;55583;53.012;6.556;2023-05-07T12:11:13;14.30;;;12.90;;
52742;SDS011;55583;53.012;6.556;2023-05-07T12:13:41;15.00;;;11.32;;
52742;SDS011;55583;53.012;6.556;2023-05-07T12:16:07;13.98;;;12.57;;
52742;SDS011;55583;53.012;6.556;2023-05-07T12:18:36;13.55;;;11.60;;
52742;SDS011;55583;53.012;6.556;2023-05-07T12:21:03;13.75;;;12.38;;
52742;SDS011;55583;53.012;6.556;2023-05-07T12:23:30;16.38;;;13.43;;
52742;SDS011;55583;53.012;6.556;2023-05-07T12:25:56;12.73;;;10.95;;
52742;SDS011;55583;53.012;6.556;2023-05-07T12:28:22;14.10;;;12.65;;
52742;SDS011;55583;53.012;6.556;2023-05-07T12:30:48;14.10;;;12.63;;
52742;SDS011;55583;53.012;6.556;2023-05-07T12:33:16;13.07;;;11.77;;
52742;SDS011;55583;53.012;6.556;2023-05-07T12:35:43;14.45;;;12.98;;
52742;SDS011;55583;53.012;6.556;2023-05-07T12:38:10;13.80;;;12.48;;
52742;SDS011;55583;53.012;6.556;2023-05-07T12:40:42;15.32;;;12.65;;
52742;SDS011;55583;53.012;6.556;2023-05-07T12:43:24;12.63;;;11.35;;
52742;SDS011;55583;53.012;6.556;2023-05-07T12:45:51;13.35;;;12.05;;
52742;SDS011;55583;53.012;6.556;2023-05-07T12:48:19;13.50;;;12.10;;
52742;SDS011;55583;53.012;6.556;2023-05-07T12:50:49;15.35;;;12.27;;
52742;SDS011;55583;53.012;6.556;2023-05-07T12:53:25;14.57;;;13.10;;
52742;SDS011;55583;53.012;6.556;2023-05-07T12:55:55;14.65;;;13.25;;
52742;SDS011;55583;53.012;6.556;2023-05-07T12:58:29;14.52;;;12.73;;
52742;SDS011;55583;53.012;6.556;2023-05-07T13:00:58;14.27;;;12.98;;
52742;SDS011;55583;53.012;6.556;2023-05-07T13:03:30;13.85;;;12.55;;
52742;SDS011;55583;53.012;6.556;2023-05-07T13:05:57;13.55;;;11.43;;
52742;SDS011;55583;53.012;6.556;2023-05-07T13:08:34;12.20;;;10.98;;
52742;SDS011;55583;53.012;6.556;2023-05-07T13:11:02;13.20;;;11.90;;
52742;SDS011;55583;53.012;6.556;2023-05-07T13:13:30;12.68;;;11.20;;
52742;SDS011;55583;53.012;6.556;2023-05-07T13:15:56;13.70;;;12.30;;
52742;SDS011;55583;53.012;6.556;2023-05-07T13:18:22;11.05;;;9.90;;
52742;SDS011;55583;53.012;6.556;2023-05-07T13:20:49;15.10;;;11.07;;
52742;SDS011;55583;53.012;6.556;2023-05-07T13:23:15;12.38;;;11.13;;
52742;SDS011;55583;53.012;6.556;2023-05-07T13:25:40;11.57;;;10.50;;
52742;SDS011;55583;53.012;6.556;2023-05-07T13:28:06;13.23;;;11.82;;
52742;SDS011;55583;53.012;6.556;2023-05-07T13:30:32;12.20;;;11.10;;
52742;SDS011;55583;53.012;6.556;2023-05-07T13:32:57;13.77;;;12.48;;
52742;SDS011;55583;53.012;6.556;2023-05-07T13:35:23;12.82;;;11.52;;
52742;SDS011;55583;53.012;6.556;2023-05-07T13:37:49;12.68;;;11.38;;
52742;SDS011;55583;53.012;6.556;2023-05-07T13:40:15;13.60;;;12.30;;
52742;SDS011;55583;53.012;6.556;2023-05-07T13:42:40;12.10;;;10.98;;
52742;SDS011;55583;53.012;6.556;2023-05-07T13:45:06;13.63;;;12.32;;
52742;SDS011;55583;53.012;6.556;2023-05-07T13:47:33;12.75;;;11.45;;
52742;SDS011;55583;53.012;6.556;2023-05-07T13:49:59;11.90;;;10.00;;
52742;SDS011;55583;53.012;6.556;2023-05-07T13:52:25;15.05;;;11.20;;
52742;SDS011;55583;53.012;6.556;2023-05-07T13:54:50;11.55;;;10.35;;
52742;SDS011;55583;53.012;6.556;2023-05-07T13:57:17;10.80;;;9.70;;
52742;SDS011;55583;53.012;6.556;2023-05-07T13:59:43;13.02;;;10.23;;
52742;SDS011;55583;53.012;6.556;2023-05-07T14:02:09;9.63;;;8.63;;
52742;SDS011;55583;53.012;6.556;2023-05-07T14:04:35;11.45;;;8.30;;
52742;SDS011;55583;53.012;6.556;2023-05-07T14:07:00;11.43;;;8.10;;
52742;SDS011;55583;53.012;6.556;2023-05-07T14:09:26;9.63;;;8.57;;
52742;SDS011;55583;53.012;6.556;2023-05-07T14:11:52;8.80;;;7.93;;
52742;SDS011;55583;53.012;6.556;2023-05-07T14:14:18;10.65;;;9.27;;
52742;SDS011;55583;53.012;6.556;2023-05-07T14:16:44;9.90;;;8.88;;
52742;SDS011;55583;53.012;6.556;2023-05-07T14:19:10;9.15;;;7.47;;
52742;SDS011;55583;53.012;6.556;2023-05-07T14:21:36;9.05;;;8.15;;
52742;SDS011;55583;53.012;6.556;2023-05-07T14:24:02;9.57;;;8.57;;
52742;SDS011;55583;53.012;6.556;2023-05-07T14:26:28;9.38;;;7.88;;
52742;SDS011;55583;53.012;6.556;2023-05-07T14:28:54;8.40;;;7.50;;
52742;SDS011;55583;53.012;6.556;2023-05-07T14:31:22;8.50;;;7.68;;
52742;SDS011;55583;53.012;6.556;2023-05-07T14:33:48;10.00;;;8.38;;